Midland, Texas
Current Conditions -  °F | °C
As of 5:15 PM on Saturday 25 Oct 2014 (Local Time) from KMDD Reporting Station
Clear Clear  
Wind Chill: 88°   Ceiling: Unl
Heat Index: 88°   Visibility: 10mi
Dew Point: 47°   Wind: 8mph
Humidity: 24%   Direction: 210°SSW
Pressure: 30.1"   Gusts: NA
Location:  32°N, 102.07°W
Report Text: KMDD 252215Z AUTO 21007KT 10SM CLR 31/08 A3010 RMK AO2 T03100081
Loading
Personal Weather Stations






























Interactive Weather Map
Tropical Storm Tracking
New forecast layout! Learn more

10-Day Weather Forecast

Advertisements
Track Severe Weather on mobile